createdAt,value
2018-05-24T00:01:00.725Z,0
2018-05-24T00:02:10.537Z,0
2018-05-24T00:03:20.291Z,0
2018-05-24T00:04:30.064Z,0
2018-05-24T00:05:39.817Z,0
2018-05-24T00:06:49.570Z,0
2018-05-24T00:07:59.384Z,0
2018-05-24T00:09:08.676Z,0
2018-05-24T00:10:18.691Z,0
2018-05-24T00:11:28.719Z,0
2018-05-24T00:12:38.466Z,0
2018-05-24T00:13:48.205Z,0
2018-05-24T00:14:58.220Z,0
2018-05-24T00:16:07.972Z,0
2018-05-24T00:17:18.138Z,0
2018-05-24T00:18:27.883Z,0
2018-05-24T00:19:37.635Z,0
2018-05-24T00:20:47.388Z,0
2018-05-24T00:21:57.396Z,0
2018-05-24T00:23:07.190Z,0
2018-05-24T00:24:16.677Z,0
2018-05-24T00:25:26.420Z,0
2018-05-24T00:26:36.431Z,0
2018-05-24T00:27:46.453Z,0
2018-05-24T00:28:56.211Z,0
2018-05-24T00:30:05.960Z,0
2018-05-24T00:31:15.708Z,0
2018-05-24T00:32:25.452Z,0
2018-05-24T00:33:34.931Z,0
2018-05-24T00:34:44.957Z,0
2018-05-24T00:35:54.707Z,0
2018-05-24T00:37:04.188Z,0
2018-05-24T00:38:14.213Z,0
2018-05-24T00:39:24.220Z,0
2018-05-24T00:40:34.238Z,0
2018-05-24T00:41:43.454Z,0
2018-05-24T00:42:53.474Z,0
2018-05-24T00:44:03.217Z,0
2018-05-24T00:45:12.695Z,0
2018-05-24T00:46:22.705Z,0
2018-05-24T00:47:32.720Z,0
2018-05-24T00:48:42.735Z,0
2018-05-24T00:49:52.209Z,0
2018-05-24T00:51:02.220Z,0
2018-05-24T00:52:11.965Z,0
2018-05-24T00:53:21.973Z,0
2018-05-24T00:54:32.073Z,0
2018-05-24T00:55:41.835Z,0
2018-05-24T00:56:51.312Z,0
2018-05-24T00:58:00.524Z,0
2018-05-24T00:59:10.538Z,0
2018-05-24T01:00:20.283Z,0
2018-05-24T01:01:30.028Z,0
2018-05-24T01:02:39.502Z,0
2018-05-24T01:03:49.343Z,0
2018-05-24T01:04:59.084Z,0
2018-05-24T01:06:08.832Z,0
2018-05-24T01:07:18.583Z,0
2018-05-24T01:08:28.420Z,0
2018-05-24T01:09:38.432Z,0
2018-05-24T01:10:47.646Z,0
2018-05-24T01:11:57.654Z,0
2018-05-24T01:13:06.868Z,0
2018-05-24T01:14:16.610Z,0
2018-05-24T01:15:26.623Z,0
2018-05-24T01:16:36.638Z,0
2018-05-24T01:17:46.116Z,0
2018-05-24T01:18:55.859Z,0
2018-05-24T01:20:05.345Z,0
2018-05-24T01:21:14.554Z,0
2018-05-24T01:22:23.764Z,0
2018-05-24T01:23:33.788Z,0
2018-05-24T01:24:43.557Z,0
2018-05-24T01:25:53.573Z,0
2018-05-24T01:27:03.320Z,0
2018-05-24T01:28:12.535Z,0
2018-05-24T01:29:22.548Z,0
2018-05-24T01:30:32.350Z,0
2018-05-24T01:31:42.366Z,0
2018-05-24T01:32:51.843Z,0
2018-05-24T01:34:01.586Z,0
2018-05-24T01:35:11.076Z,0
2018-05-24T01:36:20.839Z,0
2018-05-24T01:37:30.855Z,0
2018-05-24T01:38:40.877Z,0
2018-05-24T01:39:50.888Z,0
2018-05-24T01:41:00.636Z,0
2018-05-24T01:42:09.848Z,0
2018-05-24T01:43:19.603Z,0
2018-05-24T01:44:28.816Z,0
2018-05-24T01:45:38.564Z,0
2018-05-24T01:46:48.043Z,0
2018-05-24T01:47:58.062Z,0
2018-05-24T01:49:07.803Z,0
2018-05-24T01:50:17.553Z,0
2018-05-24T01:51:27.297Z,0
2018-05-24T01:52:37.045Z,0
2018-05-24T01:53:47.057Z,0
2018-05-24T01:54:57.065Z,0
2018-05-24T01:56:07.076Z,0
2018-05-24T01:57:16.829Z,0
2018-05-24T01:58:26.852Z,0
2018-05-24T01:59:36.674Z,0
2018-05-24T02:00:46.689Z,0
2018-05-24T02:01:56.745Z,5
2018-05-24T02:03:05.968Z,5
2018-05-24T02:04:15.176Z,5
2018-05-24T02:05:24.924Z,5
2018-05-24T02:06:34.673Z,5
2018-05-24T02:07:44.484Z,5
2018-05-24T02:08:54.230Z,5
2018-05-24T02:10:03.178Z,5
2018-05-24T02:11:12.660Z,5
2018-05-24T02:12:21.868Z,5
2018-05-24T02:13:31.350Z,5
2018-05-24T02:14:41.097Z,10
2018-05-24T02:15:51.125Z,10
2018-05-24T02:17:00.869Z,10
2018-05-24T02:18:10.624Z,10
2018-05-24T02:19:20.641Z,10
2018-05-24T02:20:30.654Z,10
2018-05-24T02:21:40.396Z,10
2018-05-24T02:22:50.139Z,15
2018-05-24T02:24:00.152Z,15
2018-05-24T02:25:09.636Z,15
2018-05-24T02:26:19.112Z,15
2018-05-24T02:27:28.912Z,15
2018-05-24T02:28:38.931Z,20
2018-05-24T02:29:48.426Z,20
2018-05-24T02:30:58.438Z,20
2018-05-24T02:32:07.920Z,20
2018-05-24T02:33:17.679Z,20
2018-05-24T02:34:27.160Z,25
2018-05-24T02:35:37.183Z,25
2018-05-24T02:36:46.670Z,25
2018-05-24T02:37:56.421Z,25
2018-05-24T02:39:05.911Z,30
2018-05-24T02:40:15.934Z,30
2018-05-24T02:41:25.690Z,30
2018-05-24T02:42:35.437Z,30
2018-05-24T02:43:45.478Z,35
2018-05-24T02:44:55.251Z,35
2018-05-24T02:46:04.461Z,35
2018-05-24T02:47:13.950Z,35
2018-05-24T02:48:23.976Z,35
2018-05-24T02:49:33.991Z,40
2018-05-24T02:50:44.025Z,40
2018-05-24T02:51:53.783Z,40
2018-05-24T02:53:03.276Z,45
2018-05-24T02:54:13.034Z,45
2018-05-24T02:55:23.054Z,45
2018-05-24T02:56:33.165Z,45
2018-05-24T02:57:42.939Z,45
2018-05-24T02:58:52.424Z,45
2018-05-24T03:00:02.176Z,45
2018-05-24T03:03:44.257Z,50
2018-05-24T03:04:54.063Z,55
2018-05-24T03:06:04.080Z,55
2018-05-24T03:07:13.835Z,55
2018-05-24T03:08:23.862Z,55
2018-05-24T03:09:33.631Z,60
2018-05-24T03:10:43.752Z,60
2018-05-24T03:11:53.545Z,60
2018-05-24T03:13:03.557Z,65
2018-05-24T03:14:13.328Z,65
2018-05-24T03:15:23.346Z,65
2018-05-24T03:16:33.367Z,65
2018-05-24T03:17:43.385Z,70
2018-05-24T03:18:52.862Z,70
2018-05-24T03:20:02.349Z,70
2018-05-24T03:21:11.560Z,75
2018-05-24T03:22:21.340Z,75
2018-05-24T03:23:31.367Z,75
2018-05-24T03:24:41.110Z,75
2018-05-24T03:25:51.119Z,80
2018-05-24T03:27:00.864Z,80
2018-05-24T03:28:10.608Z,80
2018-05-24T03:29:20.355Z,80
2018-05-24T03:30:30.374Z,85
2018-05-24T03:31:40.402Z,85
2018-05-24T03:32:50.143Z,85
2018-05-24T03:33:59.923Z,85
2018-05-24T03:35:09.544Z,85
2018-05-24T03:36:19.563Z,85
2018-05-24T03:37:29.037Z,85
2018-05-24T03:38:38.785Z,90
2018-05-24T03:39:47.992Z,90
2018-05-24T03:40:57.476Z,90
2018-05-24T03:42:06.950Z,90
2018-05-24T03:43:16.444Z,95
2018-05-24T03:44:26.462Z,95
2018-05-24T03:45:36.217Z,95
2018-05-24T03:46:46.238Z,95
2018-05-24T03:47:56.257Z,100
2018-05-24T03:49:06.269Z,100
2018-05-24T03:50:16.281Z,100
2018-05-24T03:51:26.067Z,100
2018-05-24T03:52:35.547Z,100
2018-05-24T03:53:45.565Z,105
2018-05-24T03:54:55.583Z,105
2018-05-24T03:56:05.332Z,105
2018-05-24T03:57:15.393Z,105
2018-05-24T03:58:25.144Z,110
2018-05-24T03:59:34.889Z,110
2018-05-24T04:00:44.917Z,110
2018-05-24T04:01:54.934Z,110
2018-05-24T04:03:04.946Z,110
2018-05-24T04:04:14.688Z,115
2018-05-24T04:05:23.895Z,115
2018-05-24T04:06:33.641Z,115
2018-05-24T04:07:43.662Z,115
2018-05-24T04:08:53.679Z,115
2018-05-24T04:10:03.424Z,120
2018-05-24T04:11:13.169Z,120
2018-05-24T04:12:23.193Z,120
2018-05-24T04:13:32.941Z,120
2018-05-24T04:14:42.690Z,120
2018-05-24T04:15:52.816Z,120
2018-05-24T04:17:02.833Z,120
2018-05-24T04:18:12.587Z,120
2018-05-24T04:19:22.339Z,120
2018-05-24T04:20:32.362Z,120
2018-05-24T04:21:42.107Z,120
2018-05-24T04:22:52.130Z,125
2018-05-24T04:24:01.875Z,125
2018-05-24T04:25:11.888Z,125
2018-05-24T04:26:21.645Z,125
2018-05-24T04:27:31.660Z,125
2018-05-24T04:28:41.412Z,130
2018-05-24T04:29:51.171Z,130
2018-05-24T04:31:00.985Z,130
2018-05-24T04:32:10.605Z,130
2018-05-24T04:33:20.372Z,130
2018-05-24T04:34:29.849Z,130
2018-05-24T04:35:39.595Z,130
2018-05-24T04:36:49.609Z,135
2018-05-24T04:37:59.367Z,135
2018-05-24T04:39:08.842Z,135
2018-05-24T04:40:18.319Z,135
2018-05-24T04:41:27.794Z,135
2018-05-24T04:42:37.009Z,135
2018-05-24T04:43:47.027Z,135
2018-05-24T04:44:56.782Z,140
2018-05-24T04:46:06.277Z,140
2018-05-24T04:47:16.028Z,140
2018-05-24T04:48:25.507Z,140
2018-05-24T04:49:35.251Z,140
2018-05-24T04:50:45.263Z,140
2018-05-24T04:51:55.011Z,140
2018-05-24T04:53:04.755Z,140
2018-05-24T04:54:14.866Z,145
2018-05-24T04:55:24.882Z,145
2018-05-24T04:56:34.897Z,145
2018-05-24T04:57:44.912Z,150
2018-05-24T04:58:54.922Z,145
2018-05-24T05:00:04.669Z,145
2018-05-24T05:01:14.410Z,145
2018-05-24T05:02:24.431Z,145
2018-05-24T05:03:34.444Z,145
2018-05-24T05:04:44.454Z,150
2018-05-24T05:05:54.279Z,150
2018-05-24T05:07:04.295Z,150
2018-05-24T05:08:14.041Z,150
2018-05-24T05:09:23.833Z,150
2018-05-24T05:10:33.587Z,150
2018-05-24T05:11:43.610Z,150
2018-05-24T05:12:53.632Z,150
2018-05-24T05:14:03.390Z,150
2018-05-24T05:15:13.487Z,150
2018-05-24T05:16:23.503Z,150
2018-05-24T05:17:33.260Z,150
2018-05-24T05:18:43.000Z,150
2018-05-24T05:19:52.755Z,150
2018-05-24T05:21:02.503Z,150
2018-05-24T05:22:12.517Z,150
2018-05-24T05:23:22.398Z,155
2018-05-24T05:24:32.102Z,155
2018-05-24T05:25:41.599Z,155
2018-05-24T05:26:51.352Z,155
2018-05-24T05:28:01.102Z,155
2018-05-24T05:29:10.583Z,155
2018-05-24T05:30:20.606Z,155
2018-05-24T05:31:30.626Z,155
2018-05-24T05:32:40.639Z,155
2018-05-24T05:33:50.656Z,155
2018-05-24T05:35:00.675Z,155
2018-05-24T05:36:10.694Z,155
2018-05-24T05:37:20.704Z,155
2018-05-24T05:38:30.870Z,155
2018-05-24T05:39:40.633Z,155
2018-05-24T05:40:50.385Z,155
2018-05-24T05:42:00.397Z,160
2018-05-24T05:43:10.176Z,160
2018-05-24T05:44:19.929Z,160
2018-05-24T05:45:29.954Z,160
2018-05-24T05:46:39.970Z,160
2018-05-24T05:47:50.079Z,160
2018-05-24T05:49:00.091Z,160
2018-05-24T05:50:09.602Z,160
2018-05-24T05:51:19.099Z,165
2018-05-24T05:52:29.111Z,160
2018-05-24T05:53:39.151Z,160
2018-05-24T05:54:49.171Z,160
2018-05-24T05:55:58.652Z,160
2018-05-24T05:57:08.408Z,160
2018-05-24T05:58:18.438Z,160
2018-05-24T05:59:27.919Z,160
2018-05-24T06:00:37.666Z,160
2018-05-24T06:01:48.203Z,165
2018-05-24T06:02:58.220Z,165
2018-05-24T06:04:07.431Z,165
2018-05-24T06:05:17.185Z,165
2018-05-24T06:06:26.661Z,165
2018-05-24T06:07:36.677Z,165
2018-05-24T06:08:46.440Z,165
2018-05-24T06:09:55.919Z,165
2018-05-24T06:11:05.663Z,165
2018-05-24T06:12:15.407Z,165
2018-05-24T06:13:25.157Z,165
2018-05-24T06:14:35.181Z,165
2018-05-24T06:15:44.941Z,165
2018-05-24T06:16:54.700Z,165
2018-05-24T06:18:04.178Z,165
2018-05-24T06:19:13.932Z,170
2018-05-24T06:20:23.747Z,170
2018-05-24T06:21:33.778Z,170
2018-05-24T06:22:43.178Z,170
2018-05-24T06:23:53.199Z,170
2018-05-24T06:25:02.954Z,170
2018-05-24T06:26:12.714Z,170
2018-05-24T06:27:22.463Z,170
2018-05-24T06:28:32.535Z,170
2018-05-24T06:29:42.107Z,170
2018-05-24T06:30:52.118Z,170
2018-05-24T06:32:01.868Z,170
2018-05-24T06:33:11.637Z,175
2018-05-24T06:34:21.654Z,175
2018-05-24T06:35:31.677Z,175
2018-05-24T06:36:41.701Z,175
2018-05-24T06:37:51.573Z,175
2018-05-24T06:39:01.352Z,175
2018-05-24T06:40:11.430Z,175
2018-05-24T06:41:20.641Z,175
2018-05-24T06:42:30.389Z,175
2018-05-24T06:43:39.865Z,180
2018-05-24T06:44:49.879Z,175
2018-05-24T06:45:59.643Z,175
2018-05-24T06:47:09.387Z,175
2018-05-24T06:48:19.405Z,175
2018-05-24T06:49:29.163Z,180
2018-05-24T06:50:39.175Z,180
2018-05-24T06:51:49.206Z,175
2018-05-24T06:52:58.676Z,175
2018-05-24T06:54:08.158Z,175
2018-05-24T06:55:18.174Z,175
2018-05-24T06:56:27.922Z,175
2018-05-24T06:57:37.971Z,175
2018-05-24T06:58:47.479Z,175
2018-05-24T06:59:57.666Z,175
2018-05-24T07:01:07.506Z,175
2018-05-24T07:02:17.257Z,175
2018-05-24T07:03:27.269Z,180
2018-05-24T07:04:37.035Z,180
2018-05-24T07:05:47.070Z,180
2018-05-24T07:06:57.098Z,180
2018-05-24T07:08:07.135Z,180
2018-05-24T07:09:16.618Z,180
2018-05-24T07:10:26.634Z,180
2018-05-24T07:11:36.115Z,180
2018-05-24T07:12:45.603Z,180
2018-05-24T07:13:55.349Z,180
2018-05-24T07:15:05.103Z,180
2018-05-24T07:16:14.581Z,185
2018-05-24T07:17:24.332Z,185
2018-05-24T07:18:34.019Z,185
2018-05-24T07:19:43.464Z,185
2018-05-24T07:20:53.479Z,185
2018-05-24T07:22:02.964Z,185
2018-05-24T07:23:12.734Z,185
2018-05-24T07:24:22.480Z,185
2018-05-24T07:25:32.512Z,185
2018-05-24T07:26:42.316Z,185
2018-05-24T07:27:52.333Z,185
2018-05-24T07:29:02.344Z,185
2018-05-24T07:30:12.184Z,185
2018-05-24T07:31:22.211Z,190
2018-05-24T07:32:32.235Z,190
2018-05-24T07:33:42.261Z,190
2018-05-24T07:34:51.741Z,190
2018-05-24T07:36:01.228Z,190
2018-05-24T07:37:10.973Z,190
2018-05-24T07:38:20.455Z,190
2018-05-24T07:39:29.933Z,190
2018-05-24T07:40:39.442Z,190
2018-05-24T07:41:49.198Z,190
2018-05-24T07:42:58.943Z,190
2018-05-24T07:44:08.694Z,190
2018-05-24T07:45:18.193Z,190
2018-05-24T07:46:27.942Z,190
2018-05-24T07:47:37.960Z,190
2018-05-24T07:48:47.719Z,190
2018-05-24T07:49:57.199Z,190
2018-05-24T07:51:06.676Z,190
2018-05-24T07:52:16.698Z,195
2018-05-24T07:53:26.180Z,195
2018-05-24T07:54:36.194Z,190
2018-05-24T07:55:46.219Z,195
2018-05-24T07:56:55.968Z,195
2018-05-24T07:58:05.715Z,195
2018-05-24T07:59:15.473Z,195
2018-05-24T08:00:25.494Z,200
2018-05-24T08:01:35.422Z,200
2018-05-24T08:02:45.183Z,200
2018-05-24T08:03:55.202Z,200
2018-05-24T08:05:04.952Z,200
2018-05-24T08:06:14.971Z,200
2018-05-24T08:07:25.096Z,200
2018-05-24T08:08:34.641Z,200
2018-05-24T08:09:44.403Z,200
2018-05-24T08:10:54.164Z,205
2018-05-24T08:12:03.687Z,205
2018-05-24T08:13:13.706Z,205
2018-05-24T08:14:23.460Z,205
2018-05-24T08:15:33.215Z,205
2018-05-24T08:16:43.232Z,205
2018-05-24T08:17:53.259Z,205
2018-05-24T08:19:03.296Z,205
2018-05-24T08:20:13.314Z,205
2018-05-24T08:21:23.330Z,215
2018-05-24T08:22:33.562Z,210
2018-05-24T08:23:43.468Z,210
2018-05-24T08:24:53.499Z,210
2018-05-24T08:26:03.061Z,210
2018-05-24T08:27:13.093Z,210
2018-05-24T08:28:22.852Z,210
2018-05-24T08:29:32.888Z,210
2018-05-24T08:30:42.647Z,215
2018-05-24T08:31:52.721Z,215
2018-05-24T08:33:02.471Z,215
2018-05-24T08:34:12.496Z,215
2018-05-24T08:35:22.661Z,215
2018-05-24T08:36:32.141Z,215
2018-05-24T08:37:42.168Z,215
2018-05-24T08:38:51.989Z,220
2018-05-24T08:40:02.011Z,220
2018-05-24T08:41:11.495Z,220
2018-05-24T08:42:21.297Z,220
2018-05-24T08:43:31.312Z,220
2018-05-24T08:44:41.337Z,220
2018-05-24T08:45:51.358Z,225
2018-05-24T08:47:01.143Z,225
2018-05-24T08:48:10.636Z,225
2018-05-24T08:49:20.395Z,225
2018-05-24T08:50:29.876Z,225
2018-05-24T08:51:39.359Z,225
2018-05-24T08:52:49.377Z,230
2018-05-24T08:53:59.394Z,230
2018-05-24T08:55:09.276Z,230
2018-05-24T08:56:19.291Z,230
2018-05-24T08:57:29.316Z,230
2018-05-24T08:58:39.064Z,230
2018-05-24T08:59:48.913Z,235
2018-05-24T09:00:58.940Z,230
2018-05-24T09:02:08.688Z,230
2018-05-24T09:03:18.718Z,235
2018-05-24T09:04:28.739Z,235
2018-05-24T09:05:38.758Z,235
2018-05-24T09:06:48.781Z,235
2018-05-24T09:07:58.804Z,235
2018-05-24T09:09:08.558Z,235
2018-05-24T09:10:18.398Z,235
2018-05-24T09:11:28.411Z,235
2018-05-24T09:12:37.894Z,240
2018-05-24T09:13:47.376Z,240
2018-05-24T09:14:57.395Z,235
2018-05-24T09:16:07.411Z,240
2018-05-24T09:17:17.448Z,245
2018-05-24T09:18:26.932Z,240
2018-05-24T09:19:36.682Z,240
2018-05-24T09:20:46.711Z,245
2018-05-24T09:21:56.715Z,245
2018-05-24T09:23:05.964Z,245
2018-05-24T09:24:15.719Z,245
2018-05-24T09:25:24.934Z,245
2018-05-24T09:26:34.697Z,245
2018-05-24T09:27:44.179Z,245
2018-05-24T09:28:54.223Z,245
2018-05-24T09:30:03.976Z,245
2018-05-24T09:31:13.454Z,245
2018-05-24T09:32:23.481Z,245
2018-05-24T09:33:33.235Z,245
2018-05-24T09:34:43.258Z,245
2018-05-24T09:35:53.280Z,245
2018-05-24T09:37:03.309Z,245
2018-05-24T09:38:12.802Z,245
2018-05-24T09:39:22.840Z,250
2018-05-24T09:40:32.869Z,245
2018-05-24T09:41:42.621Z,245
2018-05-24T09:42:52.112Z,245
2018-05-24T09:44:02.178Z,250
2018-05-24T09:45:12.211Z,250
2018-05-24T09:46:21.695Z,250
2018-05-24T09:47:31.780Z,250
2018-05-24T09:48:41.540Z,250
2018-05-24T09:49:51.294Z,250
2018-05-24T09:51:01.043Z,250
2018-05-24T09:52:10.538Z,250
2018-05-24T09:53:20.291Z,255
2018-05-24T09:54:30.048Z,255
2018-05-24T09:55:40.086Z,255
2018-05-24T09:56:50.144Z,255
2018-05-24T09:58:00.256Z,255
2018-05-24T09:59:09.484Z,255
2018-05-24T10:00:19.008Z,255
2018-05-24T10:01:29.042Z,255
2018-05-24T10:02:39.074Z,260
2018-05-24T10:03:48.827Z,260
2018-05-24T10:04:58.584Z,260
2018-05-24T10:06:08.341Z,260
2018-05-24T10:07:18.398Z,260
2018-05-24T10:08:28.145Z,260
2018-05-24T10:09:37.954Z,260
2018-05-24T10:10:48.043Z,260
2018-05-24T10:11:58.064Z,260
2018-05-24T10:13:08.098Z,260
2018-05-24T10:14:17.850Z,265
2018-05-24T10:15:27.336Z,265
2018-05-24T10:16:37.341Z,265
2018-05-24T10:17:47.484Z,265
2018-05-24T10:18:57.236Z,265
2018-05-24T10:20:06.988Z,265
2018-05-24T10:21:17.010Z,265
2018-05-24T10:22:27.037Z,270
2018-05-24T10:23:37.435Z,270
2018-05-24T10:24:47.470Z,270
2018-05-24T10:25:56.991Z,270
2018-05-24T10:27:06.778Z,270
2018-05-24T10:28:16.265Z,275
2018-05-24T10:29:26.605Z,275
2018-05-24T10:30:36.477Z,275
2018-05-24T10:31:46.494Z,275
2018-05-24T10:32:56.749Z,275
2018-05-24T10:34:05.975Z,275
2018-05-24T10:35:15.474Z,275
2018-05-24T10:36:25.493Z,280
2018-05-24T10:37:35.247Z,280
2018-05-24T10:38:44.997Z,280
2018-05-24T10:39:54.798Z,280
2018-05-24T10:41:04.290Z,280
2018-05-24T10:42:14.045Z,285
2018-05-24T10:43:23.820Z,285
2018-05-24T10:44:33.333Z,285
2018-05-24T10:45:42.575Z,285
2018-05-24T10:46:52.326Z,285
2018-05-24T10:48:02.085Z,285
2018-05-24T10:49:11.846Z,285
2018-05-24T10:50:21.382Z,290
2018-05-24T10:51:31.048Z,290
2018-05-24T10:52:41.075Z,290
2018-05-24T10:53:50.590Z,290
2018-05-24T10:55:00.636Z,290
2018-05-24T10:56:11.125Z,290
2018-05-24T10:57:20.991Z,290
2018-05-24T10:58:30.482Z,290
2018-05-24T10:59:40.935Z,290
2018-05-24T11:00:50.712Z,295
2018-05-24T11:02:00.473Z,295
2018-05-24T11:03:10.692Z,295
2018-05-24T11:04:20.741Z,295
2018-05-24T11:05:30.768Z,295
2018-05-24T11:06:40.791Z,295
2018-05-24T11:07:50.544Z,300
2018-05-24T11:09:00.299Z,300
2018-05-24T11:10:10.050Z,300
2018-05-24T11:11:19.806Z,305
2018-05-24T11:12:29.856Z,305
2018-05-24T11:13:39.719Z,310
2018-05-24T11:14:49.741Z,315
2018-05-24T11:15:59.508Z,315
2018-05-24T11:17:09.533Z,315
2018-05-24T11:18:19.561Z,315
2018-05-24T11:19:29.049Z,320
2018-05-24T11:20:38.804Z,320
2018-05-24T11:21:48.570Z,335
2018-05-24T11:22:58.070Z,330
2018-05-24T11:24:07.566Z,330
2018-05-24T11:25:17.979Z,330
2018-05-24T11:26:27.834Z,335
2018-05-24T11:27:37.601Z,355
2018-05-24T11:28:47.364Z,620
2018-05-24T11:29:57.178Z,1920
2018-05-24T11:31:06.688Z,2535
2018-05-24T11:32:16.472Z,2725
2018-05-24T11:33:26.233Z,2815
2018-05-24T11:34:36.262Z,2640
2018-05-24T11:35:46.286Z,2940
2018-05-24T11:36:56.112Z,3095
2018-05-24T11:38:05.846Z,3130
2018-05-24T11:39:15.878Z,3125
2018-05-24T11:40:25.922Z,2955
2018-05-24T11:41:35.685Z,3115
2018-05-24T11:42:45.442Z,3055
2018-05-24T11:43:55.467Z,3090
2018-05-24T11:45:04.957Z,2670
2018-05-24T11:46:14.719Z,2170
2018-05-24T11:47:24.477Z,2050
2018-05-24T11:48:34.503Z,2125
2018-05-24T11:49:44.530Z,2495
2018-05-24T11:50:54.289Z,2945
2018-05-24T11:52:03.920Z,2705
2018-05-24T11:53:13.782Z,2645
2018-05-24T11:54:23.575Z,3085
2018-05-24T11:55:33.606Z,3160
2018-05-24T11:56:43.658Z,2865
2018-05-24T11:57:53.723Z,3045
2018-05-24T11:59:03.487Z,3145
2018-05-24T12:00:13.514Z,3035
2018-05-24T12:01:23.271Z,2895
2018-05-24T12:02:33.100Z,2740
2018-05-24T12:03:42.610Z,2625
2018-05-24T12:04:51.566Z,2625
2018-05-24T12:06:01.699Z,2720
2018-05-24T12:07:11.887Z,2975
2018-05-24T12:08:21.581Z,3035
2018-05-24T12:09:30.815Z,2675
2018-05-24T12:10:40.586Z,2235
2018-05-24T12:11:50.402Z,1975
2018-05-24T12:13:00.169Z,1810
2018-05-24T12:14:09.709Z,1675
2018-05-24T12:15:19.794Z,1880
2018-05-24T12:16:29.658Z,2200
2018-05-24T12:17:39.160Z,2350
2018-05-24T12:18:48.656Z,2530
2018-05-24T12:19:58.690Z,2915
2018-05-24T12:21:08.729Z,2945
2018-05-24T12:22:18.770Z,3035
2018-05-24T12:23:28.595Z,3135
2018-05-24T12:24:38.643Z,2860
2018-05-24T12:25:48.406Z,3015
2018-05-24T12:26:58.188Z,2935
2018-05-24T12:28:07.690Z,2895
2018-05-24T12:29:18.351Z,2670
2018-05-24T12:30:28.381Z,2555
2018-05-24T12:31:38.411Z,2755
2018-05-24T12:32:48.458Z,2755
2018-05-24T12:33:57.961Z,2705
2018-05-24T12:35:07.745Z,2625
2018-05-24T12:36:17.797Z,2370
2018-05-24T12:37:27.926Z,2480
2018-05-24T12:38:37.713Z,2815
2018-05-24T12:39:47.475Z,2645
2018-05-24T12:40:57.504Z,2450
2018-05-24T12:42:07.424Z,2505
2018-05-24T12:43:17.527Z,2670
2018-05-24T12:44:27.026Z,2690
2018-05-24T12:45:37.091Z,2665
2018-05-24T12:46:46.856Z,2780
2018-05-24T12:47:56.892Z,2645
2018-05-24T12:49:07.244Z,2530
2018-05-24T12:50:17.280Z,2510
2018-05-24T12:51:27.049Z,2610
2018-05-24T12:52:36.813Z,2645
2018-05-24T12:53:46.576Z,2520
2018-05-24T12:54:56.337Z,2440
2018-05-24T12:56:05.837Z,2355
2018-05-24T12:57:15.871Z,2130
2018-05-24T12:58:25.902Z,2010
2018-05-24T12:59:35.131Z,2040
2018-05-24T13:00:44.632Z,2070
2018-05-24T13:01:54.398Z,2050
2018-05-24T13:03:04.161Z,2080
2018-05-24T13:04:14.265Z,2085
2018-05-24T13:05:24.125Z,2150
2018-05-24T13:06:34.155Z,2280
2018-05-24T13:07:44.194Z,2660
2018-05-24T13:08:53.693Z,2935
2018-05-24T13:10:03.170Z,2800
2018-05-24T13:11:13.114Z,3010
2018-05-24T13:12:23.157Z,3750
2018-05-24T13:13:32.942Z,3695
2018-05-24T13:14:42.711Z,3225
2018-05-24T13:15:52.763Z,3170
2018-05-24T13:17:02.732Z,3295
2018-05-24T13:18:12.148Z,3145
2018-05-24T13:19:21.914Z,3065
2018-05-24T13:20:31.678Z,3450
2018-05-24T13:21:41.712Z,3660
2018-05-24T13:22:51.206Z,3525
2018-05-24T13:24:00.702Z,3445
2018-05-24T13:25:10.761Z,3705
2018-05-24T13:26:20.795Z,3750
2018-05-24T13:27:30.564Z,3465
2018-05-24T13:28:40.593Z,3550
2018-05-24T13:29:50.094Z,3690
2018-05-24T13:31:00.129Z,3830
2018-05-24T13:32:10.176Z,4130
2018-05-24T13:33:20.309Z,3950
2018-05-24T13:34:30.528Z,3560
2018-05-24T13:35:40.041Z,3540
2018-05-24T13:36:50.080Z,3605
2018-05-24T13:37:59.841Z,3615
2018-05-24T13:39:09.073Z,3665
2018-05-24T13:40:18.572Z,3535
2018-05-24T13:41:28.340Z,3435
2018-05-24T13:42:38.100Z,3275
2018-05-24T13:43:47.609Z,3465
2018-05-24T13:44:57.110Z,3440
2018-05-24T13:46:06.602Z,3605
2018-05-24T13:47:16.371Z,3655
2018-05-24T13:48:26.138Z,3600
2018-05-24T13:49:35.099Z,3655
2018-05-24T13:50:44.981Z,3620
2018-05-24T13:51:54.744Z,3565
2018-05-24T13:53:04.516Z,3410
2018-05-24T13:54:14.606Z,3390
2018-05-24T13:55:24.639Z,3485
2018-05-24T13:56:34.399Z,3485
2018-05-24T13:57:44.447Z,3630
2018-05-24T13:58:54.486Z,3560
2018-05-24T14:00:03.984Z,3470
2018-05-24T14:01:13.759Z,3400
2018-05-24T14:02:23.798Z,3335
2018-05-24T14:03:33.566Z,3375
2018-05-24T14:04:43.065Z,3310
2018-05-24T14:05:52.839Z,3260
2018-05-24T14:07:02.603Z,3260
2018-05-24T14:08:12.376Z,3305
2018-05-24T14:09:22.544Z,3155
2018-05-24T14:10:32.314Z,3190
2018-05-24T14:11:41.539Z,3090
2018-05-24T14:12:51.307Z,3170
2018-05-24T14:14:01.336Z,3110
2018-05-24T14:15:11.095Z,3190
2018-05-24T14:16:21.122Z,3220
2018-05-24T14:17:31.304Z,3085
2018-05-24T14:18:41.398Z,3020
2018-05-24T14:19:51.424Z,2990
2018-05-24T14:21:01.450Z,2915
2018-05-24T14:22:11.211Z,3090
2018-05-24T14:23:20.967Z,3185
2018-05-24T14:24:30.730Z,3180
2018-05-24T14:25:40.507Z,3075
2018-05-24T14:26:50.267Z,3080
2018-05-24T14:28:00.034Z,3125
2018-05-24T14:29:09.534Z,3200
2018-05-24T14:30:19.301Z,3215
2018-05-24T14:31:29.058Z,3050
2018-05-24T14:32:39.099Z,3060
2018-05-24T14:33:49.127Z,3140
2018-05-24T14:34:58.889Z,3135
2018-05-24T14:36:08.649Z,3000
2018-05-24T14:37:18.670Z,2985
2018-05-24T14:38:28.439Z,3030
2018-05-24T14:39:38.204Z,3070
2018-05-24T14:40:47.695Z,3050
2018-05-24T14:41:57.454Z,3010
2018-05-24T14:43:07.519Z,3040
2018-05-24T14:44:17.549Z,3020
2018-05-24T14:45:27.574Z,2995
2018-05-24T14:46:37.069Z,2950
2018-05-24T14:47:47.093Z,2825
2018-05-24T14:48:56.850Z,2760
2018-05-24T14:50:06.616Z,2730
2018-05-24T14:51:16.378Z,2720
2018-05-24T14:52:26.459Z,2575
2018-05-24T14:53:36.480Z,2630
2018-05-24T14:54:46.510Z,2725
2018-05-24T14:55:56.092Z,2675
2018-05-24T14:57:05.865Z,2740
2018-05-24T14:58:15.906Z,2860
2018-05-24T14:59:25.932Z,2895
2018-05-24T15:00:35.697Z,2940
2018-05-24T15:01:45.458Z,2815
2018-05-24T15:02:55.496Z,2930
2018-05-24T15:04:05.259Z,2985
2018-05-24T15:05:14.764Z,2935
2018-05-24T15:06:24.630Z,2910
2018-05-24T15:07:34.392Z,2855
2018-05-24T15:08:43.889Z,2935
2018-05-24T15:09:53.656Z,2705
2018-05-24T15:11:03.421Z,2590
2018-05-24T15:12:13.460Z,2620
2018-05-24T15:13:23.049Z,2650
2018-05-24T15:14:33.093Z,2620
2018-05-24T15:15:42.589Z,2680
2018-05-24T15:16:52.350Z,2480
2018-05-24T15:18:02.165Z,2530
2018-05-24T15:19:11.675Z,2635
2018-05-24T15:20:21.724Z,2645
2018-05-24T15:21:31.217Z,2665
2018-05-24T15:22:40.973Z,2635
2018-05-24T15:23:50.733Z,2535
2018-05-24T15:25:00.762Z,2590
2018-05-24T15:26:10.528Z,2685
2018-05-24T15:27:20.312Z,2605
2018-05-24T15:28:30.367Z,2615
2018-05-24T15:29:40.399Z,2535
2018-05-24T15:30:50.167Z,2595
2018-05-24T15:32:00.204Z,2640
2018-05-24T15:33:09.965Z,2610
2018-05-24T15:34:19.726Z,2560
2018-05-24T15:35:29.758Z,2620
2018-05-24T15:36:38.983Z,2585
2018-05-24T15:37:49.034Z,2500
2018-05-24T15:38:58.797Z,2655
2018-05-24T15:40:08.556Z,2605
2018-05-24T15:41:18.592Z,2580
2018-05-24T15:42:28.624Z,2550
2018-05-24T15:43:38.453Z,2480
2018-05-24T15:44:48.219Z,2570
2018-05-24T15:45:58.243Z,2570
2018-05-24T15:47:07.469Z,2630
2018-05-24T15:48:17.539Z,2475
2018-05-24T15:49:27.050Z,1895
2018-05-24T15:50:37.085Z,1780
2018-05-24T15:51:46.587Z,2495
2018-05-24T15:52:56.354Z,2040
2018-05-24T15:54:06.384Z,1055
2018-05-24T15:55:16.417Z,1580
2018-05-24T15:56:26.448Z,2125
2018-05-24T15:57:36.491Z,1855
2018-05-24T15:58:46.253Z,1980
2018-05-24T15:59:56.279Z,1665
2018-05-24T16:01:06.041Z,960
2018-05-24T16:02:16.102Z,745
2018-05-24T16:03:26.267Z,1075
2018-05-24T16:04:36.345Z,1395
2018-05-24T16:05:46.380Z,1720
2018-05-24T16:06:56.412Z,2150